Farlen, Indiana
Current Conditions -  °F | °C
As of 10:35 AM on Friday 31 Oct 2014 (Local Time) from KDCY Reporting Station
Drizzle Drizzle  
Wind Chill: 36°   Ceiling: 2000
Heat Index: 42°   Visibility: 7mi
Dew Point: 39°   Wind: 10mph
Humidity: 91%   Direction: 330°NNW
Pressure: 30.07"   Gusts: NA
Location:  38.8205°N, 86.9659°W
Report Text: KDCY 311535Z AUTO 33009KT 7SM -DZ BKN020 BKN028 OVC037 06/04 A3007 RMK AO2 T00550041
Loading
Personal Weather Stations






























Interactive Weather Map
Tropical Storm Tracking
New forecast layout! Learn more

10-Day Weather Forecast

Advertisements
Track Severe Weather on mobile